ASK503 EPWA-LKMT
Flight info
| Callsign | ASK503 |
|---|---|
| Flight time | 0h 37m |
| Altitude | 24000 |
| Route | EVINA N744 TUSIN |
| Aircraft | B738/M-SDE2E3FGHIRWXY/LB1 |
Departure
| Time | 2026-05-07 10:27 |
|---|---|
| Airport | Warsaw Chopin Airport (EPWA) |
Arrival
| Time | 2026-05-07 11:05 |
|---|---|
| Airport | Leoš Janáček Airport Ostrava (LKMT) |
| Time | Latitude | Longitude | Altitude | Speed | Heading |
|---|---|---|---|---|---|
| 2026-05-07 09:59 | 52.16957 | 20.97189 | 338 ft | 0 kts | 68° |
| 2026-05-07 10:17 | 52.16950 | 20.97160 | 333 ft | 3 kts | 68° |
| 2026-05-07 10:17 | 52.16942 | 20.97127 | 334 ft | 3 kts | 68° |
| 2026-05-07 10:18 | 52.16934 | 20.97098 | 334 ft | 1 kts | 68° |
| 2026-05-07 10:18 | 52.16929 | 20.97069 | 334 ft | 3 kts | 96° |
| 2026-05-07 10:18 | 52.16935 | 20.97040 | 334 ft | 3 kts | 136° |
| 2026-05-07 10:18 | 52.16952 | 20.97020 | 334 ft | 3 kts | 151° |
| 2026-05-07 10:19 | 52.16955 | 20.97017 | 338 ft | 0 kts | 152° |
| 2026-05-07 10:21 | 52.16953 | 20.97019 | 338 ft | 2 kts | 152° |
| 2026-05-07 10:21 | 52.16905 | 20.97061 | 336 ft | 13 kts | 152° |
| 2026-05-07 10:21 | 52.16806 | 20.97147 | 338 ft | 16 kts | 152° |
| 2026-05-07 10:21 | 52.16717 | 20.97142 | 334 ft | 14 kts | 233° |
| 2026-05-07 10:22 | 52.16651 | 20.97051 | 337 ft | 13 kts | 176° |
| 2026-05-07 10:22 | 52.16571 | 20.97114 | 336 ft | 13 kts | 150° |
| 2026-05-07 10:22 | 52.16493 | 20.97180 | 334 ft | 13 kts | 152° |
| 2026-05-07 10:22 | 52.16395 | 20.97266 | 335 ft | 19 kts | 152° |
| 2026-05-07 10:23 | 52.16269 | 20.97376 | 334 ft | 21 kts | 151° |
| 2026-05-07 10:23 | 52.16141 | 20.97490 | 337 ft | 21 kts | 152° |
| 2026-05-07 10:23 | 52.16015 | 20.97596 | 334 ft | 20 kts | 152° |
| 2026-05-07 10:23 | 52.15889 | 20.97709 | 338 ft | 22 kts | 152° |
| 2026-05-07 10:24 | 52.15740 | 20.97838 | 337 ft | 26 kts | 152° |
| 2026-05-07 10:24 | 52.15634 | 20.97966 | 335 ft | 14 kts | 101° |
| 2026-05-07 10:24 | 52.15691 | 20.98071 | 336 ft | 13 kts | 25° |
| 2026-05-07 10:24 | 52.15779 | 20.98135 | 338 ft | 15 kts | 24° |
| 2026-05-07 10:25 | 52.15875 | 20.98207 | 336 ft | 15 kts | 24° |
| 2026-05-07 10:25 | 52.15969 | 20.98276 | 335 ft | 14 kts | 24° |
| 2026-05-07 10:25 | 52.16059 | 20.98341 | 334 ft | 13 kts | 24° |
| 2026-05-07 10:25 | 52.16102 | 20.98372 | 336 ft | 4 kts | 19° |
| 2026-05-07 10:26 | 52.16119 | 20.98345 | 335 ft | 4 kts | 286° |
| 2026-05-07 10:26 | 52.16128 | 20.98304 | 333 ft | 4 kts | 293° |
| 2026-05-07 10:26 | 52.16166 | 20.98169 | 333 ft | 39 kts | 295° |
| 2026-05-07 10:26 | 52.16380 | 20.97407 | 336 ft | 107 kts | 294° |
| 2026-05-07 10:27 | 52.16769 | 20.96011 | 355 ft | 161 kts | 294° |
| 2026-05-07 10:27 | 52.17258 | 20.94263 | 885 ft | 174 kts | 295° |
| 2026-05-07 10:27 | 52.17768 | 20.92449 | 1717 ft | 176 kts | 295° |
| 2026-05-07 10:27 | 52.18192 | 20.90632 | 2571 ft | 165 kts | 275° |
| 2026-05-07 10:28 | 52.18086 | 20.88792 | 3217 ft | 163 kts | 258° |
| 2026-05-07 10:28 | 52.17850 | 20.86979 | 3786 ft | 166 kts | 256° |
| 2026-05-07 10:28 | 52.17585 | 20.85031 | 4027 ft | 190 kts | 256° |
| 2026-05-07 10:28 | 52.17285 | 20.82823 | 4210 ft | 210 kts | 256° |
| 2026-05-07 10:29 | 52.16958 | 20.80402 | 4407 ft | 229 kts | 256° |
| 2026-05-07 10:29 | 52.16595 | 20.77719 | 4637 ft | 251 kts | 256° |
| 2026-05-07 10:29 | 52.16213 | 20.74896 | 5196 ft | 258 kts | 256° |
| 2026-05-07 10:30 | 52.14697 | 20.69738 | 6628 ft | 258 kts | 224° |
| 2026-05-07 10:30 | 52.13341 | 20.67872 | 7352 ft | 260 kts | 219° |
| 2026-05-07 10:30 | 52.11906 | 20.66085 | 8047 ft | 263 kts | 218° |
| 2026-05-07 10:30 | 52.10445 | 20.64289 | 8771 ft | 265 kts | 218° |
| 2026-05-07 10:31 | 52.08972 | 20.62469 | 9530 ft | 267 kts | 218° |
| 2026-05-07 10:31 | 52.07487 | 20.60620 | 10208 ft | 272 kts | 219° |
| 2026-05-07 10:31 | 52.05926 | 20.58665 | 10405 ft | 295 kts | 219° |
| 2026-05-07 10:31 | 52.04243 | 20.56551 | 10582 ft | 317 kts | 219° |
| 2026-05-07 10:32 | 52.02445 | 20.54290 | 10738 ft | 337 kts | 219° |
| 2026-05-07 10:32 | 52.00554 | 20.51910 | 11101 ft | 349 kts | 218° |
| 2026-05-07 10:32 | 51.98620 | 20.49479 | 11707 ft | 353 kts | 218° |
| 2026-05-07 10:32 | 51.96675 | 20.47038 | 12409 ft | 355 kts | 218° |
| 2026-05-07 10:33 | 51.94578 | 20.44905 | 13073 ft | 360 kts | 203° |
| 2026-05-07 10:33 | 51.92134 | 20.43933 | 13848 ft | 364 kts | 189° |
| 2026-05-07 10:33 | 51.89603 | 20.43520 | 14559 ft | 367 kts | 187° |
| 2026-05-07 10:33 | 51.87047 | 20.43178 | 15194 ft | 371 kts | 187° |
| 2026-05-07 10:34 | 51.84463 | 20.42839 | 15827 ft | 374 kts | 187° |
| 2026-05-07 10:34 | 51.81852 | 20.42479 | 16471 ft | 377 kts | 187° |
| 2026-05-07 10:34 | 51.79231 | 20.42101 | 17100 ft | 380 kts | 187° |
| 2026-05-07 10:34 | 51.76585 | 20.41707 | 17710 ft | 384 kts | 187° |
| 2026-05-07 10:35 | 51.73916 | 20.41303 | 18307 ft | 387 kts | 187° |
| 2026-05-07 10:35 | 51.71226 | 20.40893 | 18870 ft | 389 kts | 187° |
| 2026-05-07 10:35 | 51.68521 | 20.40482 | 19441 ft | 391 kts | 188° |
| 2026-05-07 10:35 | 51.65804 | 20.40070 | 19996 ft | 393 kts | 188° |
| 2026-05-07 10:36 | 51.63072 | 20.39657 | 20536 ft | 396 kts | 188° |
| 2026-05-07 10:36 | 51.60322 | 20.39240 | 21077 ft | 398 kts | 188° |
| 2026-05-07 10:36 | 51.57556 | 20.38822 | 21597 ft | 400 kts | 188° |
| 2026-05-07 10:36 | 51.54769 | 20.38401 | 22099 ft | 403 kts | 188° |
| 2026-05-07 10:37 | 51.51972 | 20.37979 | 22612 ft | 405 kts | 188° |
| 2026-05-07 10:37 | 51.49155 | 20.37554 | 23133 ft | 408 kts | 188° |
| 2026-05-07 10:37 | 51.46319 | 20.37127 | 23570 ft | 411 kts | 188° |
| 2026-05-07 10:37 | 51.43463 | 20.36698 | 23877 ft | 413 kts | 189° |
| 2026-05-07 10:38 | 51.40608 | 20.36198 | 23889 ft | 410 kts | 194° |
| 2026-05-07 10:38 | 51.37935 | 20.34766 | 23914 ft | 405 kts | 208° |
| 2026-05-07 10:38 | 51.35573 | 20.32338 | 23917 ft | 404 kts | 217° |
| 2026-05-07 10:38 | 51.33363 | 20.29642 | 23920 ft | 405 kts | 218° |
| 2026-05-07 10:39 | 51.31134 | 20.26882 | 23907 ft | 405 kts | 218° |
| 2026-05-07 10:39 | 51.28906 | 20.24134 | 23915 ft | 405 kts | 218° |
| 2026-05-07 10:39 | 51.26666 | 20.21399 | 23912 ft | 405 kts | 218° |
| 2026-05-07 10:39 | 51.24425 | 20.18686 | 23904 ft | 404 kts | 218° |
| 2026-05-07 10:40 | 51.22178 | 20.15983 | 23908 ft | 404 kts | 218° |
| 2026-05-07 10:40 | 51.19935 | 20.13294 | 23910 ft | 403 kts | 218° |
| 2026-05-07 10:40 | 51.17694 | 20.10612 | 23917 ft | 403 kts | 218° |
| 2026-05-07 10:40 | 51.15453 | 20.07932 | 23912 ft | 403 kts | 218° |
| 2026-05-07 10:41 | 51.13212 | 20.05256 | 23920 ft | 403 kts | 218° |
| 2026-05-07 10:41 | 51.10971 | 20.02584 | 23918 ft | 403 kts | 218° |
| 2026-05-07 10:41 | 51.08728 | 19.99915 | 23918 ft | 402 kts | 218° |
| 2026-05-07 10:41 | 51.06489 | 19.97255 | 23916 ft | 402 kts | 218° |
| 2026-05-07 10:42 | 51.04246 | 19.94594 | 23913 ft | 402 kts | 218° |
| 2026-05-07 10:42 | 51.02003 | 19.91936 | 23919 ft | 402 kts | 218° |
| 2026-05-07 10:42 | 50.99763 | 19.89285 | 23925 ft | 402 kts | 217° |
| 2026-05-07 10:42 | 50.97517 | 19.86633 | 23926 ft | 402 kts | 217° |
| 2026-05-07 10:43 | 50.95271 | 19.83985 | 23917 ft | 403 kts | 217° |
| 2026-05-07 10:43 | 50.93021 | 19.81332 | 23910 ft | 402 kts | 217° |
| 2026-05-07 10:43 | 50.90779 | 19.78692 | 23909 ft | 401 kts | 217° |
| 2026-05-07 10:43 | 50.88541 | 19.76059 | 23913 ft | 400 kts | 217° |
| 2026-05-07 10:44 | 50.86314 | 19.73443 | 23912 ft | 400 kts | 217° |
| 2026-05-07 10:44 | 50.84093 | 19.70837 | 23915 ft | 400 kts | 217° |
| 2026-05-07 10:44 | 50.81860 | 19.68218 | 23917 ft | 400 kts | 217° |
| 2026-05-07 10:44 | 50.79623 | 19.65600 | 23918 ft | 400 kts | 217° |
| 2026-05-07 10:45 | 50.77387 | 19.62985 | 23921 ft | 401 kts | 217° |
| 2026-05-07 10:45 | 50.75138 | 19.60358 | 23917 ft | 402 kts | 217° |
| 2026-05-07 10:45 | 50.72891 | 19.57736 | 23919 ft | 402 kts | 217° |
| 2026-05-07 10:45 | 50.70639 | 19.55113 | 23918 ft | 402 kts | 217° |
| 2026-05-07 10:46 | 50.68388 | 19.52494 | 23914 ft | 403 kts | 217° |
| 2026-05-07 10:46 | 50.66132 | 19.49871 | 23920 ft | 403 kts | 217° |
| 2026-05-07 10:46 | 50.63907 | 19.47288 | 23914 ft | 403 kts | 217° |
| 2026-05-07 10:46 | 50.61754 | 19.44555 | 23892 ft | 390 kts | 221° |
| 2026-05-07 10:47 | 50.59775 | 19.41717 | 23383 ft | 382 kts | 223° |
| 2026-05-07 10:47 | 50.57866 | 19.38908 | 22705 ft | 370 kts | 223° |
| 2026-05-07 10:47 | 50.56013 | 19.36171 | 22038 ft | 361 kts | 223° |
| 2026-05-07 10:47 | 50.54204 | 19.33512 | 21391 ft | 356 kts | 223° |
| 2026-05-07 10:48 | 50.52386 | 19.30856 | 20767 ft | 359 kts | 223° |
| 2026-05-07 10:48 | 50.50545 | 19.28183 | 20148 ft | 361 kts | 223° |
| 2026-05-07 10:48 | 50.48701 | 19.25516 | 19434 ft | 360 kts | 223° |
| 2026-05-07 10:48 | 50.46863 | 19.22868 | 18721 ft | 358 kts | 223° |
| 2026-05-07 10:49 | 50.45649 | 19.21120 | 18263 ft | 357 kts | 223° |
| 2026-05-07 10:49 | 50.43798 | 19.18461 | 17452 ft | 356 kts | 223° |
| 2026-05-07 10:49 | 50.41983 | 19.15858 | 16672 ft | 353 kts | 222° |
| 2026-05-07 10:49 | 50.40191 | 19.13291 | 15913 ft | 348 kts | 222° |
| 2026-05-07 10:50 | 50.38425 | 19.10764 | 15169 ft | 343 kts | 222° |
| 2026-05-07 10:50 | 50.36673 | 19.08260 | 14436 ft | 339 kts | 222° |
| 2026-05-07 10:50 | 50.34965 | 19.05821 | 13737 ft | 335 kts | 222° |
| 2026-05-07 10:50 | 50.33253 | 19.03380 | 12946 ft | 332 kts | 222° |
| 2026-05-07 10:51 | 50.31554 | 19.00958 | 12170 ft | 328 kts | 222° |
| 2026-05-07 10:51 | 50.29890 | 18.98590 | 11712 ft | 317 kts | 222° |
| 2026-05-07 10:51 | 50.28286 | 18.96309 | 11277 ft | 306 kts | 222° |
| 2026-05-07 10:51 | 50.26722 | 18.94088 | 10874 ft | 300 kts | 222° |
| 2026-05-07 10:52 | 50.25209 | 18.91939 | 10718 ft | 287 kts | 222° |
| 2026-05-07 10:52 | 50.23752 | 18.89874 | 10601 ft | 283 kts | 222° |
| 2026-05-07 10:52 | 50.22270 | 18.87772 | 10499 ft | 293 kts | 222° |
| 2026-05-07 10:52 | 50.20783 | 18.85668 | 10347 ft | 282 kts | 222° |
| 2026-05-07 10:53 | 50.19399 | 18.83709 | 10225 ft | 268 kts | 222° |
| 2026-05-07 10:53 | 50.18214 | 18.82035 | 10134 ft | 256 kts | 222° |
| 2026-05-07 10:53 | 50.16984 | 18.80298 | 10025 ft | 250 kts | 222° |
| 2026-05-07 10:53 | 50.15686 | 18.78466 | 9793 ft | 255 kts | 222° |
| 2026-05-07 10:54 | 50.14363 | 18.76600 | 9398 ft | 258 kts | 223° |
| 2026-05-07 10:54 | 50.13067 | 18.74772 | 9020 ft | 257 kts | 223° |
| 2026-05-07 10:54 | 50.11759 | 18.72931 | 8628 ft | 252 kts | 223° |
| 2026-05-07 10:54 | 50.10465 | 18.71110 | 8242 ft | 249 kts | 223° |
| 2026-05-07 10:55 | 50.09190 | 18.69319 | 7866 ft | 245 kts | 223° |
| 2026-05-07 10:55 | 50.07928 | 18.67545 | 7429 ft | 245 kts | 223° |
| 2026-05-07 10:55 | 50.06680 | 18.65792 | 6999 ft | 245 kts | 223° |
| 2026-05-07 10:55 | 50.05410 | 18.64011 | 6560 ft | 246 kts | 224° |
| 2026-05-07 10:56 | 50.04140 | 18.62230 | 6103 ft | 246 kts | 223° |
| 2026-05-07 10:56 | 50.02867 | 18.60446 | 5646 ft | 246 kts | 223° |
| 2026-05-07 10:56 | 50.01597 | 18.58668 | 5201 ft | 245 kts | 223° |
| 2026-05-07 10:56 | 50.00330 | 18.56894 | 4780 ft | 245 kts | 223° |
| 2026-05-07 10:57 | 49.99078 | 18.55144 | 4428 ft | 239 kts | 223° |
| 2026-05-07 10:57 | 49.97880 | 18.53472 | 4155 ft | 231 kts | 223° |
| 2026-05-07 10:57 | 49.96756 | 18.51904 | 3916 ft | 224 kts | 223° |
| 2026-05-07 10:57 | 49.95588 | 18.50273 | 3663 ft | 228 kts | 223° |
| 2026-05-07 10:58 | 49.94403 | 18.48621 | 3441 ft | 233 kts | 223° |
| 2026-05-07 10:58 | 49.93179 | 18.46915 | 3213 ft | 239 kts | 223° |
| 2026-05-07 10:58 | 49.91940 | 18.45191 | 3035 ft | 237 kts | 224° |
| 2026-05-07 10:58 | 49.90733 | 18.43511 | 2967 ft | 230 kts | 223° |
| 2026-05-07 10:59 | 49.89554 | 18.41872 | 3000 ft | 226 kts | 224° |
| 2026-05-07 10:59 | 49.88401 | 18.40269 | 2980 ft | 218 kts | 223° |
| 2026-05-07 10:59 | 49.87296 | 18.38734 | 2973 ft | 209 kts | 223° |
| 2026-05-07 10:59 | 49.86236 | 18.37266 | 2973 ft | 201 kts | 223° |
| 2026-05-07 11:00 | 49.85214 | 18.35851 | 2974 ft | 196 kts | 222° |
| 2026-05-07 11:00 | 49.84183 | 18.34448 | 3010 ft | 195 kts | 223° |
| 2026-05-07 11:00 | 49.83225 | 18.33023 | 3011 ft | 187 kts | 226° |
| 2026-05-07 11:00 | 49.82328 | 18.31606 | 3002 ft | 181 kts | 226° |
| 2026-05-07 11:01 | 49.81453 | 18.30201 | 2997 ft | 183 kts | 226° |
| 2026-05-07 11:01 | 49.80572 | 18.28780 | 3009 ft | 181 kts | 226° |
| 2026-05-07 11:01 | 49.79726 | 18.27416 | 2981 ft | 171 kts | 226° |
| 2026-05-07 11:01 | 49.78924 | 18.26121 | 2993 ft | 164 kts | 227° |
| 2026-05-07 11:02 | 49.78145 | 18.24862 | 2901 ft | 159 kts | 226° |
| 2026-05-07 11:02 | 49.77413 | 18.23679 | 2722 ft | 145 kts | 226° |
| 2026-05-07 11:02 | 49.76735 | 18.22585 | 2556 ft | 140 kts | 227° |
| 2026-05-07 11:02 | 49.76061 | 18.21497 | 2383 ft | 143 kts | 226° |
| 2026-05-07 11:03 | 49.75372 | 18.20381 | 2162 ft | 144 kts | 226° |
| 2026-05-07 11:03 | 49.74679 | 18.19262 | 1986 ft | 142 kts | 225° |
| 2026-05-07 11:03 | 49.74001 | 18.18166 | 1792 ft | 144 kts | 226° |
| 2026-05-07 11:03 | 49.73311 | 18.17048 | 1579 ft | 141 kts | 226° |
| 2026-05-07 11:04 | 49.72663 | 18.16001 | 1423 ft | 132 kts | 226° |
| 2026-05-07 11:04 | 49.72026 | 18.14972 | 1219 ft | 131 kts | 228° |
| 2026-05-07 11:04 | 49.71388 | 18.13935 | 1042 ft | 133 kts | 225° |
| 2026-05-07 11:04 | 49.70746 | 18.12901 | 876 ft | 135 kts | 226° |
| 2026-05-07 11:05 | 49.70128 | 18.11904 | 827 ft | 113 kts | 226° |
| 2026-05-07 11:05 | 49.69738 | 18.11275 | 830 ft | 44 kts | 226° |
| 2026-05-07 11:05 | 49.69642 | 18.11126 | 825 ft | 13 kts | 211° |
| 2026-05-07 11:05 | 49.69567 | 18.11162 | 825 ft | 13 kts | 137° |
| 2026-05-07 11:06 | 49.69504 | 18.11254 | 821 ft | 0 kts | 136° |
| 2026-05-07 11:06 | 49.69503 | 18.11255 | 821 ft | 0 kts | 136° |
| 2026-05-07 11:06 | 49.69499 | 18.11261 | 821 ft | 1 kts | 137° |
| 2026-05-07 11:06 | 49.69491 | 18.11272 | 821 ft | 2 kts | 137° |
| 2026-05-07 11:07 | 49.69481 | 18.11286 | 821 ft | 2 kts | 138° |
| 2026-05-07 11:07 | 49.69473 | 18.11298 | 819 ft | 0 kts | 136° |
| 2026-05-07 11:07 | 49.69473 | 18.11299 | 821 ft | 0 kts | 136° |
| 2026-05-07 11:07 | 49.69472 | 18.11299 | 821 ft | 0 kts | 136° |
| 2026-05-07 11:08 | 49.69470 | 18.11303 | 818 ft | 4 kts | 137° |
| 2026-05-07 11:08 | 49.69437 | 18.11350 | 820 ft | 7 kts | 136° |
| 2026-05-07 11:08 | 49.69410 | 18.11416 | 820 ft | 7 kts | 95° |
| 2026-05-07 11:09 | 49.69436 | 18.11481 | 820 ft | 7 kts | 46° |
| 2026-05-07 11:09 | 49.69477 | 18.11554 | 820 ft | 13 kts | 46° |
| 2026-05-07 11:09 | 49.69564 | 18.11694 | 820 ft | 22 kts | 46° |
| 2026-05-07 11:09 | 49.69592 | 18.11822 | 820 ft | 10 kts | 114° |
| 2026-05-07 11:10 | 49.69602 | 18.11899 | 819 ft | 1 kts | 73° |
| 2026-05-07 11:10 | 49.69594 | 18.11913 | 820 ft | 3 kts | 128° |
| 2026-05-07 11:10 | 49.69575 | 18.11945 | 820 ft | 5 kts | 135° |
| 2026-05-07 11:10 | 49.69558 | 18.11971 | 820 ft | 2 kts | 137° |
| 2026-05-07 11:11 | 49.69557 | 18.11971 | 820 ft | 0 kts | 137° |
| 2026-05-07 11:13 | 49.69558 | 18.11971 | 820 ft | 0 kts | 137° |
| 2026-05-07 11:14 | 49.69558 | 18.11970 | 820 ft | 0 kts | 137° |